createdAt,value
2019-02-10T00:00:33.685Z,9.22
2019-02-10T00:01:33.673Z,9.22
2019-02-10T00:02:33.660Z,9.28
2019-02-10T00:03:33.648Z,9.21
2019-02-10T00:04:33.637Z,9.21
2019-02-10T00:05:33.625Z,9.28
2019-02-10T00:06:33.614Z,9.32
2019-02-10T00:07:33.601Z,9.22
2019-02-10T00:08:33.590Z,9.28
2019-02-10T00:09:33.579Z,9.31
2019-02-10T00:10:33.569Z,9.29
2019-02-10T00:11:33.555Z,9.29
2019-02-10T00:12:33.543Z,9.25
2019-02-10T00:13:33.533Z,9.28
2019-02-10T00:14:33.519Z,9.29
2019-02-10T00:15:33.507Z,9.21
2019-02-10T00:16:33.496Z,9.25
2019-02-10T00:17:33.484Z,9.21
2019-02-10T00:18:33.472Z,9.21
2019-02-10T00:19:33.460Z,9.25
2019-02-10T00:20:33.449Z,9.31
2019-02-10T00:21:33.439Z,9.23
2019-02-10T00:22:33.475Z,9.29
2019-02-10T00:23:33.414Z,9.32
2019-02-10T00:24:33.402Z,9.22
2019-02-10T00:25:33.391Z,9.26
2019-02-10T00:26:33.378Z,9.32
2019-02-10T00:27:33.367Z,9.28
2019-02-10T00:28:33.356Z,9.36
2019-02-10T00:29:33.344Z,9.34
2019-02-10T00:30:33.332Z,9.29
2019-02-10T00:31:33.321Z,9.31
2019-02-10T00:32:33.310Z,9.25
2019-02-10T00:33:33.298Z,9.31
2019-02-10T00:34:33.288Z,9.28
2019-02-10T00:35:33.275Z,9.36
2019-02-10T00:36:33.741Z,9.36
2019-02-10T00:37:33.253Z,9.25
2019-02-10T00:38:33.241Z,9.26
2019-02-10T00:39:33.230Z,9.28
2019-02-10T00:40:33.217Z,9.28
2019-02-10T00:41:33.209Z,9.25
2019-02-10T00:42:33.193Z,9.26
2019-02-10T00:43:33.182Z,9.21
2019-02-10T00:44:33.171Z,9.22
2019-02-10T00:45:33.159Z,9.19
2019-02-10T00:46:33.147Z,9.22
2019-02-10T00:47:33.136Z,9.22
2019-02-10T00:48:33.124Z,9.22
2019-02-10T00:49:33.112Z,9.19
2019-02-10T00:50:33.100Z,9.16
2019-02-10T00:51:33.089Z,9.13
2019-02-10T00:52:33.077Z,9.21
2019-02-10T00:53:33.065Z,9.06
2019-02-10T00:54:33.053Z,9.10
2019-02-10T00:55:33.041Z,9.08
2019-02-10T00:56:33.030Z,9.16
2019-02-10T00:57:33.019Z,9.11
2019-02-10T00:58:33.006Z,9.11
2019-02-10T00:59:32.995Z,9.08
2019-02-10T01:00:32.984Z,9.14
2019-02-10T01:01:32.981Z,9.06
2019-02-10T01:02:32.960Z,9.04
2019-02-10T01:03:32.952Z,9.06
2019-02-10T01:04:32.937Z,9.10
2019-02-10T01:05:32.925Z,9.13
2019-02-10T01:06:40.929Z,9.11
2019-02-10T01:07:32.903Z,9.10
2019-02-10T01:08:32.890Z,9.16
2019-02-10T01:09:32.883Z,9.11
2019-02-10T01:10:32.866Z,9.06
2019-02-10T01:11:32.855Z,9.08
2019-02-10T01:12:32.843Z,9.06
2019-02-10T01:13:32.834Z,9.10
2019-02-10T01:14:32.820Z,9.16
2019-02-10T01:15:32.809Z,9.08
2019-02-10T01:16:32.800Z,9.16
2019-02-10T01:17:32.785Z,9.10
2019-02-10T01:18:32.773Z,9.08
2019-02-10T01:19:32.765Z,9.03
2019-02-10T01:20:32.750Z,9.02
2019-02-10T01:21:32.739Z,9.10
2019-02-10T01:22:32.727Z,9.06
2019-02-10T01:23:32.765Z,9.11
2019-02-10T01:24:32.703Z,9.11
2019-02-10T01:25:32.692Z,9.10
2019-02-10T01:26:32.680Z,9.08
2019-02-10T01:27:32.668Z,9.06
2019-02-10T01:28:32.688Z,9.06
2019-02-10T01:29:32.645Z,9.10
2019-02-10T01:30:32.632Z,9.14
2019-02-10T01:31:32.621Z,9.11
2019-02-10T01:32:32.609Z,9.10
2019-02-10T01:33:32.599Z,9.02
2019-02-10T01:34:32.585Z,9.14
2019-02-10T01:35:32.574Z,9.08
2019-02-10T01:36:32.562Z,9.08
2019-02-10T01:37:32.551Z,9.11
2019-02-10T01:38:32.539Z,9.10
2019-02-10T01:39:32.527Z,9.06
2019-02-10T01:40:32.515Z,9.13
2019-02-10T01:41:32.503Z,9.11
2019-02-10T01:42:32.491Z,9.06
2019-02-10T01:43:32.479Z,9.04
2019-02-10T01:44:32.472Z,9.08
2019-02-10T01:45:32.457Z,9.08
2019-02-10T01:46:32.444Z,8.97
2019-02-10T01:47:32.432Z,8.97
2019-02-10T01:48:32.421Z,8.94
2019-02-10T01:49:32.411Z,8.85
2019-02-10T01:50:32.397Z,8.84
2019-02-10T01:51:32.389Z,8.71
2019-02-10T01:52:32.374Z,8.73
2019-02-10T01:53:32.363Z,8.58
2019-02-10T01:54:32.349Z,8.53
2019-02-10T01:55:33.021Z,8.55
2019-02-10T01:56:32.326Z,8.44
2019-02-10T01:57:32.314Z,8.36
2019-02-10T01:58:32.302Z,8.42
2019-02-10T01:59:32.290Z,8.33
2019-02-10T02:00:32.278Z,8.20
2019-02-10T02:01:32.266Z,8.23
2019-02-10T02:02:32.254Z,8.16
2019-02-10T02:03:32.292Z,8.16
2019-02-10T02:04:32.229Z,8.00
2019-02-10T02:05:32.217Z,7.95
2019-02-10T02:06:32.204Z,7.93
2019-02-10T02:07:32.192Z,7.97
2019-02-10T02:08:32.180Z,7.87
2019-02-10T02:09:32.168Z,7.87
2019-02-10T02:10:32.155Z,7.83
2019-02-10T02:11:32.142Z,7.73
2019-02-10T02:12:32.130Z,7.72
2019-02-10T02:13:32.117Z,7.83
2019-02-10T02:14:32.108Z,7.70
2019-02-10T02:15:32.092Z,7.66
2019-02-10T02:16:32.079Z,7.67
2019-02-10T02:17:32.067Z,7.57
2019-02-10T02:18:32.053Z,7.54
2019-02-10T02:19:32.041Z,7.51
2019-02-10T02:20:32.028Z,7.48
2019-02-10T02:21:32.015Z,7.47
2019-02-10T02:22:32.002Z,7.48
2019-02-10T02:23:31.990Z,7.38
2019-02-10T02:24:31.976Z,7.42
2019-02-10T02:25:31.966Z,7.40
2019-02-10T02:26:31.950Z,7.38
2019-02-10T02:27:31.937Z,7.35
2019-02-10T02:28:31.924Z,7.36
2019-02-10T02:29:31.911Z,7.36
2019-02-10T02:30:31.898Z,7.28
2019-02-10T02:31:31.887Z,7.32
2019-02-10T02:32:31.875Z,7.33
2019-02-10T02:33:31.859Z,7.33
2019-02-10T02:34:31.847Z,7.31
2019-02-10T02:35:31.832Z,7.24
2019-02-10T02:36:31.819Z,7.24
2019-02-10T02:37:31.807Z,7.20
2019-02-10T02:38:31.792Z,7.32
2019-02-10T02:39:31.783Z,7.17
2019-02-10T02:40:31.768Z,7.14
2019-02-10T02:41:31.754Z,7.21
2019-02-10T02:42:31.740Z,7.21
2019-02-10T02:43:31.738Z,7.18
2019-02-10T02:44:31.715Z,7.17
2019-02-10T02:45:31.702Z,7.23
2019-02-10T02:46:31.687Z,7.21
2019-02-10T02:47:31.674Z,7.21
2019-02-10T02:48:31.660Z,7.20
2019-02-10T02:49:31.648Z,7.23
2019-02-10T02:50:31.634Z,7.23
2019-02-10T02:51:31.622Z,7.20
2019-02-10T02:52:31.608Z,7.15
2019-02-10T02:53:31.595Z,7.11
2019-02-10T02:54:31.580Z,7.18
2019-02-10T02:55:31.568Z,7.20
2019-02-10T02:56:31.554Z,7.07
2019-02-10T02:57:31.541Z,7.11
2019-02-10T02:58:31.526Z,7.10
2019-02-10T02:59:31.514Z,7.10
2019-02-10T03:00:31.501Z,7.07
2019-02-10T03:01:31.488Z,7.18
2019-02-10T03:02:31.481Z,7.21
2019-02-10T03:03:31.460Z,7.18
2019-02-10T03:04:31.447Z,7.18
2019-02-10T03:05:31.434Z,7.14
2019-02-10T03:06:31.428Z,7.20
2019-02-10T03:07:31.412Z,7.18
2019-02-10T03:08:31.395Z,7.21
2019-02-10T03:09:31.382Z,7.24
2019-02-10T03:10:31.368Z,7.29
2019-02-10T03:11:31.354Z,7.20
2019-02-10T03:12:31.340Z,7.31
2019-02-10T03:13:31.327Z,7.21
2019-02-10T03:14:31.313Z,7.25
2019-02-10T03:15:31.300Z,7.31
2019-02-10T03:16:31.286Z,7.23
2019-02-10T03:17:31.274Z,7.23
2019-02-10T03:18:31.258Z,7.20
2019-02-10T03:19:31.245Z,7.29
2019-02-10T03:20:31.234Z,7.20
2019-02-10T03:21:31.219Z,7.31
2019-02-10T03:22:31.209Z,7.29
2019-02-10T03:23:31.192Z,7.18
2019-02-10T03:24:31.178Z,7.23
2019-02-10T03:25:31.166Z,7.29
2019-02-10T03:26:31.150Z,7.33
2019-02-10T03:27:31.142Z,7.21
2019-02-10T03:28:31.124Z,7.24
2019-02-10T03:29:31.110Z,7.25
2019-02-10T03:30:31.103Z,7.31
2019-02-10T03:31:31.087Z,7.31
2019-02-10T03:32:31.071Z,7.24
2019-02-10T03:33:31.057Z,7.39
2019-02-10T03:34:31.042Z,7.33
2019-02-10T03:35:31.030Z,7.39
2019-02-10T03:36:31.017Z,7.36
2019-02-10T03:37:31.003Z,7.36
2019-02-10T03:38:30.991Z,7.35
2019-02-10T03:39:30.977Z,7.39
2019-02-10T03:40:30.963Z,7.35
2019-02-10T03:41:30.952Z,7.33
2019-02-10T03:42:30.937Z,7.38
2019-02-10T03:43:30.921Z,7.39
2019-02-10T03:44:30.910Z,7.36
2019-02-10T03:45:30.895Z,7.45
2019-02-10T03:46:30.881Z,7.40
2019-02-10T03:47:30.869Z,7.51
2019-02-10T03:48:30.854Z,7.51
2019-02-10T03:49:30.842Z,7.51
2019-02-10T03:50:30.827Z,7.47
2019-02-10T03:51:30.814Z,7.51
2019-02-10T03:52:30.801Z,7.56
2019-02-10T03:53:30.789Z,7.57
2019-02-10T03:54:30.775Z,7.54
2019-02-10T03:55:30.760Z,7.60
2019-02-10T03:56:30.748Z,7.54
2019-02-10T03:57:30.737Z,7.50
2019-02-10T03:58:30.725Z,7.48
2019-02-10T03:59:30.708Z,7.58
2019-02-10T04:00:30.694Z,7.51
2019-02-10T04:01:30.680Z,7.51
2019-02-10T04:02:30.668Z,7.70
2019-02-10T04:03:30.653Z,7.72
2019-02-10T04:04:30.641Z,7.63
2019-02-10T04:05:30.627Z,7.67
2019-02-10T04:06:30.614Z,7.77
2019-02-10T04:07:36.211Z,7.69
2019-02-10T04:08:30.587Z,7.73
2019-02-10T04:09:30.574Z,7.69
2019-02-10T04:10:30.560Z,7.69
2019-02-10T04:11:30.550Z,7.67
2019-02-10T04:12:30.535Z,7.72
2019-02-10T04:13:30.523Z,7.75
2019-02-10T04:14:30.508Z,7.72
2019-02-10T04:15:30.495Z,7.70
2019-02-10T04:16:30.480Z,7.67
2019-02-10T04:17:30.473Z,7.79
2019-02-10T04:18:30.455Z,7.76
2019-02-10T04:19:30.440Z,7.77
2019-02-10T04:20:30.427Z,7.73
2019-02-10T04:21:30.415Z,7.79
2019-02-10T04:22:30.400Z,7.87
2019-02-10T04:23:30.388Z,7.90
2019-02-10T04:24:30.375Z,7.82
2019-02-10T04:25:30.361Z,7.87
2019-02-10T04:26:30.348Z,7.87
2019-02-10T04:27:30.335Z,7.93
2019-02-10T04:28:30.323Z,7.93
2019-02-10T04:29:30.312Z,7.93
2019-02-10T04:30:30.345Z,7.95
2019-02-10T04:31:30.282Z,8.01
2019-02-10T04:32:30.279Z,8.01
2019-02-10T04:33:30.258Z,8.01
2019-02-10T04:34:30.244Z,7.97
2019-02-10T04:35:30.231Z,8.00
2019-02-10T04:36:30.218Z,8.09
2019-02-10T04:37:30.206Z,8.09
2019-02-10T04:38:30.193Z,8.10
2019-02-10T04:39:30.178Z,8.13
2019-02-10T04:40:30.166Z,8.15
2019-02-10T04:41:30.153Z,8.18
2019-02-10T04:42:30.139Z,8.18
2019-02-10T04:43:30.131Z,8.19
2019-02-10T04:44:30.114Z,8.18
2019-02-10T04:45:30.102Z,8.26
2019-02-10T04:46:30.088Z,8.34
2019-02-10T04:47:30.076Z,8.28
2019-02-10T04:48:30.062Z,8.18
2019-02-10T04:49:30.061Z,8.33
2019-02-10T04:50:30.036Z,8.33
2019-02-10T04:51:30.023Z,8.31
2019-02-10T04:52:30.010Z,8.27
2019-02-10T04:53:29.998Z,8.34
2019-02-10T04:54:29.984Z,8.27
2019-02-10T04:55:29.973Z,8.28
2019-02-10T04:56:29.960Z,8.24
2019-02-10T04:57:29.952Z,8.28
2019-02-10T04:58:29.932Z,8.42
2019-02-10T04:59:29.920Z,8.41
2019-02-10T05:00:29.908Z,8.37
2019-02-10T05:01:29.894Z,8.33
2019-02-10T05:02:29.882Z,8.38
2019-02-10T05:03:29.868Z,8.42
2019-02-10T05:04:29.857Z,8.45
2019-02-10T05:05:29.844Z,8.45
2019-02-10T05:06:29.830Z,8.42
2019-02-10T05:07:29.817Z,8.44
2019-02-10T05:08:29.809Z,8.46
2019-02-10T05:09:29.792Z,8.48
2019-02-10T05:10:29.778Z,8.58
2019-02-10T05:11:29.765Z,8.55
2019-02-10T05:12:29.752Z,8.55
2019-02-10T05:13:29.741Z,8.55
2019-02-10T05:14:29.726Z,8.55
2019-02-10T05:15:29.715Z,8.63
2019-02-10T05:16:29.701Z,8.63
2019-02-10T05:17:29.692Z,8.63
2019-02-10T05:18:29.677Z,8.63
2019-02-10T05:19:29.665Z,8.63
2019-02-10T05:20:29.653Z,8.67
2019-02-10T05:21:29.637Z,8.74
2019-02-10T05:22:29.623Z,8.63
2019-02-10T05:23:29.632Z,8.71
2019-02-10T05:24:29.598Z,8.78
2019-02-10T05:25:29.586Z,8.74
2019-02-10T05:26:29.576Z,8.78
2019-02-10T05:27:29.560Z,8.73
2019-02-10T05:28:29.549Z,8.73
2019-02-10T05:29:29.535Z,8.71
2019-02-10T05:30:29.521Z,8.79
2019-02-10T05:31:29.513Z,8.82
2019-02-10T05:32:29.496Z,8.85
2019-02-10T05:33:29.484Z,8.79
2019-02-10T05:34:29.470Z,8.79
2019-02-10T05:35:29.458Z,8.82
2019-02-10T05:36:29.447Z,8.85
2019-02-10T05:37:29.433Z,8.81
2019-02-10T05:38:29.419Z,8.74
2019-02-10T05:39:29.409Z,8.81
2019-02-10T05:40:29.394Z,8.73
2019-02-10T05:41:29.382Z,8.70
2019-02-10T05:42:29.371Z,8.76
2019-02-10T05:43:29.359Z,8.71
2019-02-10T05:44:29.344Z,8.82
2019-02-10T05:45:29.335Z,8.70
2019-02-10T05:46:29.317Z,8.84
2019-02-10T05:47:29.304Z,8.79
2019-02-10T05:48:29.292Z,8.76
2019-02-10T05:49:29.280Z,8.82
2019-02-10T05:50:29.268Z,8.85
2019-02-10T05:51:29.254Z,8.82
2019-02-10T05:52:29.240Z,8.81
2019-02-10T05:53:29.228Z,8.78
2019-02-10T05:54:29.221Z,8.82
2019-02-10T05:55:29.206Z,8.69
2019-02-10T05:56:29.191Z,8.70
2019-02-10T05:57:29.177Z,8.71
2019-02-10T05:58:29.163Z,8.74
2019-02-10T05:59:29.151Z,8.73
2019-02-10T06:00:29.138Z,8.71
2019-02-10T06:01:29.128Z,8.84
2019-02-10T06:02:29.113Z,8.71
2019-02-10T06:03:29.100Z,8.74
2019-02-10T06:04:29.087Z,8.70
2019-02-10T06:05:29.075Z,8.70
2019-02-10T06:06:29.061Z,8.74
2019-02-10T06:07:29.047Z,8.70
2019-02-10T06:08:29.035Z,8.70
2019-02-10T06:09:29.024Z,8.70
2019-02-10T06:10:29.011Z,8.71
2019-02-10T06:11:28.996Z,8.70
2019-02-10T06:12:28.986Z,8.73
2019-02-10T06:13:28.974Z,8.71
2019-02-10T06:14:28.958Z,8.69
2019-02-10T06:15:28.953Z,8.74
2019-02-10T06:16:28.932Z,8.67
2019-02-10T06:17:28.920Z,8.76
2019-02-10T06:18:28.908Z,8.85
2019-02-10T06:19:28.893Z,8.84
2019-02-10T06:20:28.881Z,8.82
2019-02-10T06:21:28.868Z,8.82
2019-02-10T06:22:28.856Z,8.78
2019-02-10T06:23:28.843Z,8.85
2019-02-10T06:24:28.829Z,8.88
2019-02-10T06:25:28.818Z,8.81
2019-02-10T06:26:28.804Z,8.82
2019-02-10T06:27:28.790Z,8.74
2019-02-10T06:28:28.778Z,8.85
2019-02-10T06:29:28.767Z,8.82
2019-02-10T06:30:28.752Z,8.78
2019-02-10T06:31:28.740Z,8.82
2019-02-10T06:32:28.728Z,8.81
2019-02-10T06:33:28.714Z,8.79
2019-02-10T06:34:28.702Z,8.79
2019-02-10T06:35:28.689Z,8.85
2019-02-10T06:36:28.681Z,8.88
2019-02-10T06:37:28.665Z,8.88
2019-02-10T06:38:28.651Z,8.82
2019-02-10T06:39:28.640Z,8.89
2019-02-10T06:40:28.633Z,8.89
2019-02-10T06:41:28.613Z,9.03
2019-02-10T06:42:28.601Z,8.95
2019-02-10T06:43:28.590Z,8.97
2019-02-10T06:44:28.576Z,8.95
2019-02-10T06:45:28.563Z,8.99
2019-02-10T06:46:28.550Z,9.00
2019-02-10T06:47:28.538Z,9.02
2019-02-10T06:48:28.525Z,9.08
2019-02-10T06:49:28.513Z,9.00
2019-02-10T06:50:28.500Z,9.00
2019-02-10T06:51:28.488Z,9.04
2019-02-10T06:52:28.475Z,8.99
2019-02-10T06:53:28.463Z,9.10
2019-02-10T06:54:28.450Z,9.04
2019-02-10T06:55:28.448Z,9.19
2019-02-10T06:56:28.426Z,9.16
2019-02-10T06:57:28.413Z,9.19
2019-02-10T06:58:28.400Z,9.11
2019-02-10T06:59:28.389Z,9.19
2019-02-10T07:00:28.377Z,9.18
2019-02-10T07:01:28.365Z,9.22
2019-02-10T07:02:28.351Z,9.29
2019-02-10T07:03:28.339Z,9.25
2019-02-10T07:04:28.327Z,9.29
2019-02-10T07:05:28.315Z,9.39
2019-02-10T07:06:28.302Z,9.25
2019-02-10T07:07:28.289Z,9.36
2019-02-10T07:08:30.592Z,9.39
2019-02-10T07:09:28.265Z,9.46
2019-02-10T07:10:28.252Z,9.43
2019-02-10T07:11:28.240Z,9.36
2019-02-10T07:12:28.229Z,9.36
2019-02-10T07:13:28.217Z,9.34
2019-02-10T07:14:28.203Z,9.40
2019-02-10T07:15:28.192Z,9.44
2019-02-10T07:16:28.180Z,9.40
2019-02-10T07:17:28.168Z,9.39
2019-02-10T07:18:28.156Z,9.40
2019-02-10T07:19:28.144Z,9.46
2019-02-10T07:20:28.132Z,9.54
2019-02-10T07:21:28.754Z,9.44
2019-02-10T07:22:28.109Z,9.44
2019-02-10T07:23:28.095Z,9.40
2019-02-10T07:24:28.083Z,9.39
2019-02-10T07:25:28.072Z,9.40
2019-02-10T07:26:28.059Z,9.56
2019-02-10T07:27:28.050Z,9.55
2019-02-10T07:28:28.035Z,9.50
2019-02-10T07:29:28.023Z,9.50
2019-02-10T07:30:28.011Z,9.51
2019-02-10T07:31:28.002Z,9.59
2019-02-10T07:32:27.987Z,9.56
2019-02-10T07:33:27.976Z,9.69
2019-02-10T07:34:27.963Z,9.61
2019-02-10T07:35:27.951Z,9.66
2019-02-10T07:36:27.939Z,9.64
2019-02-10T07:37:27.930Z,9.74
2019-02-10T07:38:27.914Z,9.73
2019-02-10T07:39:27.903Z,9.82
2019-02-10T07:40:27.891Z,9.80
2019-02-10T07:41:27.932Z,9.74
2019-02-10T07:42:27.869Z,9.80
2019-02-10T07:43:27.855Z,9.76
2019-02-10T07:44:27.844Z,9.83
2019-02-10T07:45:27.832Z,9.89
2019-02-10T07:46:27.819Z,9.92
2019-02-10T07:47:27.808Z,9.92
2019-02-10T07:48:27.802Z,9.89
2019-02-10T07:49:27.788Z,9.91
2019-02-10T07:50:27.771Z,9.91
2019-02-10T07:51:27.760Z,9.98
2019-02-10T07:52:27.748Z,9.94
2019-02-10T07:53:27.737Z,9.92
2019-02-10T07:54:27.724Z,9.92
2019-02-10T07:55:27.716Z,9.94
2019-02-10T07:56:28.870Z,9.92
2019-02-10T07:57:27.690Z,9.94
2019-02-10T07:58:27.677Z,9.84
2019-02-10T07:59:27.666Z,9.95
2019-02-10T08:00:27.654Z,9.95
2019-02-10T08:01:27.643Z,9.89
2019-02-10T08:02:27.631Z,9.91
2019-02-10T08:03:27.621Z,9.92
2019-02-10T08:04:27.611Z,9.91
2019-02-10T08:05:27.596Z,9.91
2019-02-10T08:06:27.584Z,9.87
2019-02-10T08:07:27.573Z,9.86
2019-02-10T08:08:27.561Z,9.92
2019-02-10T08:09:27.550Z,9.91
2019-02-10T08:10:27.537Z,9.99
2019-02-10T08:11:27.533Z,9.92
2019-02-10T08:12:27.514Z,9.95
2019-02-10T08:13:27.506Z,9.86
2019-02-10T08:14:27.491Z,9.83
2019-02-10T08:15:27.479Z,9.94
2019-02-10T08:16:27.467Z,9.89
2019-02-10T08:17:27.458Z,9.94
2019-02-10T08:18:27.444Z,9.94
2019-02-10T08:19:27.433Z,9.89
2019-02-10T08:20:27.421Z,9.89
2019-02-10T08:21:27.410Z,9.99
2019-02-10T08:22:27.398Z,9.95
2019-02-10T08:23:27.386Z,10.04
2019-02-10T08:24:27.376Z,10.01
2019-02-10T08:25:27.365Z,9.99
2019-02-10T08:26:28.582Z,10.01
2019-02-10T08:27:27.342Z,10.04
2019-02-10T08:28:27.329Z,10.02
2019-02-10T08:29:27.318Z,9.89
2019-02-10T08:30:27.307Z,10.01
2019-02-10T08:31:27.293Z,9.94
2019-02-10T08:32:27.282Z,9.84
2019-02-10T08:33:27.271Z,9.74
2019-02-10T08:34:27.258Z,9.82
2019-02-10T08:35:27.464Z,9.72
2019-02-10T08:36:27.235Z,9.72
2019-02-10T08:37:27.223Z,9.68
2019-02-10T08:38:27.211Z,9.65
2019-02-10T08:39:27.199Z,9.56
2019-02-10T08:40:27.187Z,9.51
2019-02-10T08:41:27.182Z,9.50
2019-02-10T08:42:27.162Z,9.40
2019-02-10T08:43:27.151Z,9.39
2019-02-10T08:44:27.139Z,9.43
2019-02-10T08:45:27.126Z,9.39
2019-02-10T08:46:27.114Z,9.41
2019-02-10T08:47:33.603Z,9.28
2019-02-10T08:48:27.089Z,9.28
2019-02-10T08:49:27.082Z,9.26
2019-02-10T08:50:27.064Z,9.26
2019-02-10T08:51:27.052Z,9.28
2019-02-10T08:52:27.040Z,9.23
2019-02-10T08:53:27.028Z,9.29
2019-02-10T08:54:27.015Z,9.34
2019-02-10T08:55:27.002Z,9.32
2019-02-10T08:56:26.997Z,9.31
2019-02-10T08:57:26.978Z,9.29
2019-02-10T08:58:26.965Z,9.26
2019-02-10T08:59:26.958Z,9.29
2019-02-10T09:00:26.947Z,9.29
2019-02-10T09:01:26.929Z,9.29
2019-02-10T09:02:26.921Z,9.21
2019-02-10T09:03:26.903Z,9.26
2019-02-10T09:04:26.895Z,9.19
2019-02-10T09:05:26.884Z,9.26
2019-02-10T09:06:26.866Z,9.25
2019-02-10T09:07:26.853Z,9.16
2019-02-10T09:08:26.841Z,9.22
2019-02-10T09:09:26.829Z,9.22
2019-02-10T09:10:26.818Z,9.19
2019-02-10T09:11:26.804Z,9.21
2019-02-10T09:12:26.791Z,9.19
2019-02-10T09:13:26.786Z,9.22
2019-02-10T09:14:26.766Z,9.13
2019-02-10T09:15:26.754Z,9.14
2019-02-10T09:16:26.742Z,9.18
2019-02-10T09:17:26.730Z,9.16
2019-02-10T09:18:26.717Z,9.21
2019-02-10T09:19:26.705Z,9.10
2019-02-10T09:20:26.694Z,9.18
2019-02-10T09:21:26.680Z,9.06
2019-02-10T09:22:26.667Z,9.14
2019-02-10T09:23:26.655Z,9.08
2019-02-10T09:24:26.642Z,9.11
2019-02-10T09:25:26.630Z,9.11
2019-02-10T09:26:26.618Z,9.10
2019-02-10T09:27:26.605Z,9.08
2019-02-10T09:28:26.593Z,9.10
2019-02-10T09:29:26.581Z,9.10
2019-02-10T09:30:26.567Z,9.10
2019-02-10T09:31:26.555Z,9.10
2019-02-10T09:32:26.543Z,9.11
2019-02-10T09:33:26.531Z,9.13
2019-02-10T09:34:26.519Z,9.04
2019-02-10T09:35:26.506Z,9.16
2019-02-10T09:36:26.492Z,9.11
2019-02-10T09:37:26.485Z,9.10
2019-02-10T09:38:26.468Z,9.06
2019-02-10T09:39:26.458Z,9.02
2019-02-10T09:40:26.444Z,9.08
2019-02-10T09:41:26.431Z,9.03
2019-02-10T09:42:26.417Z,9.11
2019-02-10T09:43:26.405Z,9.06
2019-02-10T09:44:26.393Z,9.11
2019-02-10T09:45:26.381Z,9.08
2019-02-10T09:46:26.367Z,9.11
2019-02-10T09:47:26.356Z,9.06
2019-02-10T09:48:26.344Z,9.11
2019-02-10T09:49:26.331Z,9.11
2019-02-10T09:50:26.318Z,9.10
2019-02-10T09:51:26.307Z,9.19
2019-02-10T09:52:26.293Z,9.21
2019-02-10T09:53:26.282Z,9.08
2019-02-10T09:54:26.268Z,9.14
2019-02-10T09:55:26.255Z,8.97
2019-02-10T09:56:26.243Z,9.03
2019-02-10T09:57:26.231Z,9.03
2019-02-10T09:58:26.218Z,8.99
2019-02-10T09:59:26.210Z,9.02
2019-02-10T10:00:26.193Z,9.03
2019-02-10T10:01:26.185Z,9.06
2019-02-10T10:02:26.167Z,9.08
2019-02-10T10:03:26.157Z,9.02
2019-02-10T10:04:26.142Z,9.02
2019-02-10T10:05:26.130Z,8.97
2019-02-10T10:06:26.117Z,9.11
2019-02-10T10:07:26.104Z,9.08
2019-02-10T10:08:26.091Z,9.03
2019-02-10T10:09:26.090Z,9.00
2019-02-10T10:10:26.067Z,9.10
2019-02-10T10:11:26.066Z,9.18
2019-02-10T10:12:26.042Z,9.08
2019-02-10T10:13:26.030Z,9.04
2019-02-10T10:14:30.826Z,8.99
2019-02-10T10:15:26.004Z,9.00
2019-02-10T10:16:25.992Z,9.04
2019-02-10T10:17:25.983Z,8.99
2019-02-10T10:18:25.966Z,9.00
2019-02-10T10:19:25.959Z,9.04
2019-02-10T10:20:25.943Z,9.03
2019-02-10T10:21:25.931Z,8.99
2019-02-10T10:22:25.917Z,8.94
2019-02-10T10:23:25.908Z,8.94
2019-02-10T10:24:25.896Z,9.03
2019-02-10T10:25:25.881Z,8.92
2019-02-10T10:26:25.871Z,8.91
2019-02-10T10:27:25.857Z,8.95
2019-02-10T10:28:25.845Z,8.91
2019-02-10T10:29:25.832Z,8.94
2019-02-10T10:30:25.819Z,8.91
2019-02-10T10:31:25.808Z,8.82
2019-02-10T10:32:25.796Z,8.92
2019-02-10T10:33:25.784Z,8.92
2019-02-10T10:34:25.770Z,8.88
2019-02-10T10:35:25.758Z,8.81
2019-02-10T10:36:25.748Z,8.81
2019-02-10T10:37:25.734Z,8.81
2019-02-10T10:38:25.721Z,8.69
2019-02-10T10:39:27.331Z,8.76
2019-02-10T10:40:25.697Z,8.69
2019-02-10T10:41:25.687Z,8.66
2019-02-10T10:42:25.672Z,8.60
2019-02-10T10:43:25.662Z,8.58
2019-02-10T10:44:25.647Z,8.55
2019-02-10T10:45:25.635Z,8.56
2019-02-10T10:46:25.623Z,8.55
2019-02-10T10:47:25.612Z,8.52
2019-02-10T10:48:25.600Z,8.52
2019-02-10T10:49:25.584Z,8.51
2019-02-10T10:50:25.571Z,8.45
2019-02-10T10:51:25.558Z,8.46
2019-02-10T10:52:25.545Z,8.48
2019-02-10T10:53:25.533Z,8.48
2019-02-10T10:54:25.520Z,8.41
2019-02-10T10:55:25.507Z,8.44
2019-02-10T10:56:25.499Z,8.44
2019-02-10T10:57:25.482Z,8.41
2019-02-10T10:58:25.470Z,8.41
2019-02-10T10:59:25.458Z,8.38
2019-02-10T11:00:25.443Z,8.36
2019-02-10T11:01:25.677Z,8.36
2019-02-10T11:02:25.417Z,8.42
2019-02-10T11:03:25.405Z,8.37
2019-02-10T11:04:25.392Z,8.46
2019-02-10T11:05:25.380Z,8.46
2019-02-10T11:06:25.367Z,8.49
2019-02-10T11:07:25.354Z,8.46
2019-02-10T11:08:25.342Z,8.42
2019-02-10T11:09:25.331Z,8.48
2019-02-10T11:10:25.316Z,8.56
2019-02-10T11:11:25.304Z,8.41
2019-02-10T11:12:25.291Z,8.52
2019-02-10T11:13:25.279Z,8.48
2019-02-10T11:14:25.266Z,8.41
2019-02-10T11:15:25.254Z,8.42
2019-02-10T11:16:25.241Z,8.41
2019-02-10T11:17:25.232Z,8.41
2019-02-10T11:18:25.216Z,8.44
2019-02-10T11:19:25.203Z,8.44
2019-02-10T11:20:25.191Z,8.41
2019-02-10T11:21:25.180Z,8.38
2019-02-10T11:22:25.166Z,8.53
2019-02-10T11:23:25.153Z,8.37
2019-02-10T11:24:28.662Z,8.37
2019-02-10T11:25:25.129Z,8.48
2019-02-10T11:26:25.117Z,8.37
2019-02-10T11:27:25.161Z,8.42
2019-02-10T11:28:25.091Z,8.37
2019-02-10T11:29:25.081Z,8.42
2019-02-10T11:30:25.065Z,8.45
2019-02-10T11:31:25.053Z,8.42
2019-02-10T11:32:25.040Z,8.33
2019-02-10T11:33:25.028Z,8.33
2019-02-10T11:34:25.016Z,8.28
2019-02-10T11:35:25.002Z,8.31
2019-02-10T11:36:24.993Z,8.27
2019-02-10T11:37:26.891Z,8.34
2019-02-10T11:38:24.965Z,8.33
2019-02-10T11:39:24.953Z,8.36
2019-02-10T11:40:24.940Z,8.37
2019-02-10T11:41:24.977Z,8.33
2019-02-10T11:42:24.915Z,8.19
2019-02-10T11:43:25.391Z,8.15
2019-02-10T11:44:24.889Z,8.15
2019-02-10T11:45:24.876Z,8.13
2019-02-10T11:46:24.863Z,8.20
2019-02-10T11:47:24.850Z,8.18
2019-02-10T11:48:24.837Z,8.18
2019-02-10T11:49:24.826Z,8.20
2019-02-10T11:50:24.812Z,8.24
2019-02-10T11:51:24.799Z,8.19
2019-02-10T11:52:24.788Z,8.08
2019-02-10T11:53:24.775Z,8.06
2019-02-10T11:54:24.760Z,7.91
2019-02-10T11:55:24.748Z,7.93
2019-02-10T11:56:24.735Z,7.93
2019-02-10T11:57:24.722Z,7.90
2019-02-10T11:58:24.708Z,7.87
2019-02-10T11:59:24.696Z,7.97
2019-02-10T12:00:24.683Z,7.93
2019-02-10T12:01:24.671Z,7.94
2019-02-10T12:02:24.657Z,7.95
2019-02-10T12:03:24.644Z,8.01
2019-02-10T12:04:24.633Z,7.95
2019-02-10T12:05:24.626Z,7.94
2019-02-10T12:06:24.606Z,7.98
2019-02-10T12:07:24.594Z,7.94
2019-02-10T12:08:24.581Z,7.85
2019-02-10T12:09:24.568Z,7.94
2019-02-10T12:10:24.565Z,7.94
2019-02-10T12:11:24.545Z,7.97
2019-02-10T12:12:24.530Z,7.97
2019-02-10T12:13:24.518Z,7.94
2019-02-10T12:14:24.504Z,7.91
2019-02-10T12:15:24.491Z,7.93
2019-02-10T12:16:24.480Z,7.90
2019-02-10T12:17:24.466Z,7.93
2019-02-10T12:18:24.452Z,7.95
2019-02-10T12:19:24.439Z,7.87
2019-02-10T12:20:24.427Z,7.82
2019-02-10T12:21:24.414Z,7.87
2019-02-10T12:22:24.402Z,7.87
2019-02-10T12:23:24.388Z,7.94
2019-02-10T12:24:24.376Z,7.85
2019-02-10T12:25:24.363Z,7.73
2019-02-10T12:26:24.350Z,7.83
2019-02-10T12:27:24.336Z,7.90
2019-02-10T12:28:24.324Z,7.76
2019-02-10T12:29:24.310Z,7.73
2019-02-10T12:30:24.297Z,7.79
2019-02-10T12:31:24.284Z,7.70
2019-02-10T12:32:24.271Z,7.75
2019-02-10T12:33:24.259Z,7.82
2019-02-10T12:34:24.256Z,7.88
2019-02-10T12:35:24.232Z,7.85
2019-02-10T12:36:24.220Z,7.83
2019-02-10T12:37:32.063Z,7.82
2019-02-10T12:38:24.194Z,7.79
2019-02-10T12:39:24.181Z,7.85
2019-02-10T12:40:24.169Z,8.00
2019-02-10T12:41:24.156Z,7.90
2019-02-10T12:42:24.143Z,7.90
2019-02-10T12:43:24.131Z,7.91
2019-02-10T12:44:24.118Z,7.93
2019-02-10T12:45:24.106Z,7.95
2019-02-10T12:46:24.093Z,7.95
2019-02-10T12:47:24.080Z,7.88
2019-02-10T12:48:24.068Z,7.91
2019-02-10T12:49:24.061Z,7.80
2019-02-10T12:50:24.043Z,7.80
2019-02-10T12:51:24.031Z,7.87
2019-02-10T12:52:24.018Z,7.88
2019-02-10T12:53:24.007Z,7.79
2019-02-10T12:54:23.993Z,7.70
2019-02-10T12:55:23.980Z,7.82
2019-02-10T12:56:23.984Z,7.87
2019-02-10T12:57:23.956Z,7.88
2019-02-10T12:58:23.943Z,7.77
2019-02-10T12:59:23.932Z,7.77
2019-02-10T13:00:23.918Z,7.82
2019-02-10T13:01:23.907Z,7.79
2019-02-10T13:02:23.893Z,7.87
2019-02-10T13:03:23.880Z,7.87
2019-02-10T13:04:23.869Z,7.85
2019-02-10T13:05:23.856Z,7.75
2019-02-10T13:06:23.843Z,7.80
2019-02-10T13:07:23.831Z,7.76
2019-02-10T13:08:23.819Z,7.70
2019-02-10T13:09:23.807Z,7.77
2019-02-10T13:10:23.793Z,7.82
2019-02-10T13:11:23.781Z,7.85
2019-02-10T13:12:23.769Z,7.82
2019-02-10T13:13:23.757Z,7.90
2019-02-10T13:14:23.744Z,7.85
2019-02-10T13:15:23.732Z,7.80
2019-02-10T13:16:23.724Z,7.77
2019-02-10T13:17:23.710Z,7.76
2019-02-10T13:18:23.696Z,7.85